Terminal Aerodrome Forecast
Issued by NWS

Home | Current Version | Previous Version | Text Only | Print | Product List | Glossary On
Versions: 1 2 3 4 5 6 7 8 9 10 11 12 13 14
000
FTUS43 KAPX 211120
TAFTVC
TAF
KTVC 211120Z 2112/2212 17006KT P6SM BKN180 WS013/22035KT
     FM211500 19010G16KT P6SM BKN180
     FM211800 19012G24KT P6SM BKN120
     FM220200 18006KT P6SM FEW120 WS020/20040KT
     FM221000 16006KT P6SM BKN090 WS020/22040KT=

USA.gov is the U.S. government's official web portal to all federal, state and local government web resources and services.